Kingston, West Virginia
Current Conditions -  °F | °C
As of 9:51 PM on Saturday 22 Nov 2014 (Local Time) from KBKW Reporting Station
Clear Clear  
Wind Chill: 39°   Ceiling: Unl
Heat Index: 44°   Visibility: 10mi
Dew Point: 16°   Wind: 10mph
Humidity: 32%   Direction: 140°SE
Pressure: 30.19"   Gusts: NA
Location:  37.9561°N, 81.2443°W
Report Text: KBKW 230251Z AUTO 14009KT 10SM CLR 07/M09 A3019 RMK AO2 SLP238 T00671089 58008
Loading
Personal Weather Stations






























Interactive Weather Map New forecast layout! Learn more

10-Day Weather Forecast

Advertisements
Track Severe Weather on mobile